Pagrindinis puslapis
METAR-TAF:

METAR-TAF

Oro uostai :

Kirkenesas, Norvegija

platuma: 69-44N, ilguma: 029-54E, Aukštis: 9 m

Dabartinis oras

Ataskaita buvo paskelbta 20 minutes, ne 02:50 UTC
Vėjas 12 kt iš Vakarų
Temperatūra 7°C
Drėgmė 61%
Slėgis 1010 hPa
Matomumas 10 km arba daugiau
nėra debesų žemiau 1500 m ir nėra kamuolinių lietaus debesų

METAR: ENKR 170250Z 26012KT CAVOK 07/M00 Q1010 RMK WIND 731FT 26020KT

Laikas: 05:10 (03:10 UTC)

Prognozė

Ataskaita buvo paskelbta 1 valandą ir 10 minutes, ne 02:00 UTC
Prognozė galioja nuo 17 metu 03 UTC su 17 metu 12 UTC
Vėjas 12 kt iš Vakarų
Matomumas 10 km arba daugiau
Mažai debesys ne aukštis 4500 ft

TAF: ENKR 170200Z 1703/1712 27012KT 9999 FEW045

Orai ataskaitas ir orų prognozės (METAR, TAF).

turimą stotys yra geltonos ir raudonos taškus žemėlapyje.

Perkelti pele per norėdami pamatyti stoties vardą.

Tada spustelėkite, norėdami matyti oro stebėjimo ir prognozės.

Norėdami pakeisti žemėlapį: spustelėkite ant žalios mygtukų su juodo kryžiaus žemyn,; žalią mygtuką su brūkšneliu, jei norite nutolinti; arba žalių rodyklių gretimoms žemėlapius.


METAR-TAF: